Time;durP1;ratioP1;P1;durP2;ratioP2;P2;SDS_P1;SDS_P2;PMS_P1;PMS_P2;Temp;Humidity;BMP_temperature;BMP_pressure;BME280_temperature;BME280_humidity;BME280_pressure;Samples;Min_cycle;Max_cycle;Signal;HPM_P1;HPM_P2
2022/11/18 00:01:34;;;;;;;5.20;2.10;;;7.90;99.90;;;;;;5073634;28;20339;-57
2022/11/18 00:04:01;;;;;;;3.63;2.30;;;7.90;99.90;;;;;;5073768;28;20241;-58
2022/11/18 00:06:29;;;;;;;5.87;1.87;;;7.90;99.90;;;;;;5073229;28;20206;-59
2022/11/18 00:08:58;;;;;;;4.70;2.20;;;7.90;99.90;;;;;;5073938;28;20211;-59
2022/11/18 00:14:21;;;;;;;6.77;2.03;;;8.00;99.90;;;;;;5073441;28;20231;-59
2022/11/18 00:16:50;;;;;;;6.63;2.37;;;8.00;99.90;;;;;;5073207;28;21005;-59
2022/11/18 00:19:17;;;;;;;7.80;2.20;;;8.10;99.90;;;;;;5073505;28;20203;-59
2022/11/18 00:21:43;;;;;;;7.10;2.10;;;8.10;99.90;;;;;;5073319;28;20203;-59
2022/11/18 00:24:10;;;;;;;5.47;1.90;;;8.10;99.90;;;;;;5072786;28;20226;-58
2022/11/18 00:26:37;;;;;;;3.63;2.20;;;8.10;99.90;;;;;;5072570;28;20242;-59
2022/11/18 00:29:04;;;;;;;8.47;2.40;;;8.10;99.90;;;;;;5073074;28;20258;-59
2022/11/18 00:31:32;;;;;;;4.37;2.10;;;8.20;99.90;;;;;;5073110;28;20251;-59
2022/11/18 00:33:58;;;;;;;2.30;1.50;;;8.20;99.90;;;;;;5073177;28;20276;-58
2022/11/18 00:36:25;;;;;;;4.47;2.10;;;8.20;99.90;;;;;;5072979;28;20210;-59
2022/11/18 00:38:52;;;;;;;5.50;2.30;;;8.20;99.90;;;;;;5073497;28;20208;-59
2022/11/18 00:41:19;;;;;;;5.70;2.20;;;8.20;99.90;;;;;;5072882;28;20206;-58
2022/11/18 00:43:45;;;;;;;4.37;2.00;;;8.20;99.90;;;;;;5072985;28;20230;-59
2022/11/18 00:46:13;;;;;;;5.60;2.33;;;8.20;99.90;;;;;;5072496;28;20214;-59
2022/11/18 00:48:41;;;;;;;6.63;2.00;;;8.30;99.90;;;;;;5072829;28;20212;-59
2022/11/18 00:51:10;;;;;;;3.63;1.97;;;8.30;99.90;;;;;;5072797;28;20228;-59
2022/11/18 00:53:37;;;;;;;6.67;2.27;;;8.30;99.90;;;;;;5073051;28;20790;-58
2022/11/18 00:56:04;;;;;;;4.03;1.87;;;8.20;99.90;;;;;;5072439;28;20211;-59
2022/11/18 00:58:31;;;;;;;6.03;1.63;;;8.20;99.90;;;;;;5072647;28;20256;-58
2022/11/18 01:00:58;;;;;;;5.40;1.97;;;8.30;99.90;;;;;;5072903;28;20249;-59
2022/11/18 01:03:24;;;;;;;4.97;1.97;;;8.30;99.90;;;;;;5072648;28;20239;-59
2022/11/18 01:05:52;;;;;;;4.60;2.20;;;8.30;99.90;;;;;;5072744;28;20294;-59
2022/11/18 01:08:20;;;;;;;6.90;2.20;;;8.30;99.90;;;;;;5072632;28;20580;-58
2022/11/18 01:10:48;;;;;;;8.20;2.47;;;8.30;99.90;;;;;;5072351;28;20268;-59
2022/11/18 01:13:19;;;;;;;6.43;1.80;;;8.30;99.90;;;;;;5072328;28;20219;-59
2022/11/18 01:15:48;;;;;;;2.70;1.90;;;8.30;99.90;;;;;;5072420;28;20207;-59
2022/11/18 01:18:16;;;;;;;5.53;2.40;;;8.30;99.90;;;;;;5072076;28;20605;-59
2022/11/18 01:20:43;;;;;;;8.80;2.30;;;8.30;99.90;;;;;;5072323;28;20623;-59
2022/11/18 01:23:11;;;;;;;7.57;2.40;;;8.30;99.90;;;;;;5072023;28;20714;-58
2022/11/18 01:25:39;;;;;;;6.13;2.00;;;8.30;99.90;;;;;;5072389;28;20208;-58
2022/11/18 01:28:06;;;;;;;5.93;2.20;;;8.40;99.90;;;;;;5072108;28;20598;-58
2022/11/18 01:30:34;;;;;;;6.10;2.20;;;8.40;99.90;;;;;;5071984;28;20209;-59
2022/11/18 01:33:02;;;;;;;2.40;1.83;;;8.40;99.90;;;;;;5071929;28;20257;-59
2022/11/18 01:35:29;;;;;;;7.60;2.07;;;8.40;99.90;;;;;;5071852;28;20345;-59
2022/11/18 01:37:56;;;;;;;6.50;2.00;;;8.50;99.90;;;;;;5071519;28;20679;-59
2022/11/18 01:40:28;;;;;;;4.57;2.37;;;8.50;99.90;;;;;;5072108;28;20671;-59
2022/11/18 01:42:54;;;;;;;3.17;1.83;;;8.50;99.90;;;;;;5071905;28;20223;-58
2022/11/18 01:45:32;;;;;;;3.50;2.30;;;8.50;99.90;;;;;;5071831;28;20223;-59
2022/11/18 01:48:06;;;;;;;5.60;2.47;;;8.50;99.90;;;;;;5071617;28;20207;-58
2022/11/18 01:50:34;;;;;;;5.80;2.77;;;8.50;99.90;;;;;;5072299;28;20223;-59
2022/11/18 01:53:05;;;;;;;7.27;1.73;;;8.50;99.90;;;;;;5072073;28;20236;-59
2022/11/18 01:55:37;;;;;;;3.57;2.17;;;8.50;99.90;;;;;;5072117;28;20265;-59
2022/11/18 01:58:10;;;;;;;6.43;1.90;;;8.50;99.90;;;;;;5071684;28;20428;-58
2022/11/18 02:00:37;;;;;;;5.03;2.00;;;8.50;99.90;;;;;;5071855;28;20215;-59
2022/11/18 02:03:05;;;;;;;6.87;2.17;;;8.50;99.90;;;;;;5071562;28;20229;-58
2022/11/18 02:05:33;;;;;;;4.43;2.23;;;8.50;99.90;;;;;;5072062;28;20589;-59
2022/11/18 02:08:01;;;;;;;5.00;1.90;;;8.40;99.90;;;;;;5071623;28;20210;-59
2022/11/18 02:10:28;;;;;;;4.73;2.00;;;8.30;99.90;;;;;;5071917;28;20290;-59
2022/11/18 02:12:57;;;;;;;5.93;2.40;;;8.30;99.90;;;;;;5071523;28;20478;-59
2022/11/18 02:15:37;;;;;;;5.50;2.10;;;8.20;99.90;;;;;;5071550;28;20674;-58
2022/11/18 02:18:11;;;;;;;6.20;2.17;;;8.20;99.90;;;;;;5071608;28;20212;-59
2022/11/18 02:20:41;;;;;;;6.10;1.70;;;8.20;99.90;;;;;;5071528;28;20672;-59
2022/11/18 02:23:55;;;;;;;4.73;2.20;;;8.20;99.90;;;;;;5071501;28;20221;-59
2022/11/18 02:26:57;;;;;;;6.30;2.10;;;8.20;99.90;;;;;;5071484;28;20218;-59
2022/11/18 02:29:30;;;;;;;5.37;2.10;;;8.20;99.90;;;;;;5071508;28;20216;-59
2022/11/18 02:32:00;;;;;;;6.73;1.97;;;8.20;99.90;;;;;;5071330;28;20225;-59
2022/11/18 02:34:40;;;;;;;3.10;1.67;;;8.10;99.90;;;;;;5071378;28;20238;-59
2022/11/18 02:37:15;;;;;;;2.70;1.60;;;8.10;99.90;;;;;;5071363;28;20228;-62
2022/11/18 02:39:53;;;;;;;5.33;2.17;;;8.10;99.90;;;;;;5071512;28;20212;-59
2022/11/18 02:42:22;;;;;;;2.83;1.50;;;8.10;99.90;;;;;;5071315;28;20212;-59
2022/11/18 02:44:56;;;;;;;4.17;2.10;;;8.00;99.90;;;;;;5071314;28;20222;-59
2022/11/18 02:47:26;;;;;;;3.83;1.77;;;8.00;99.90;;;;;;5071318;28;20215;-59
2022/11/18 02:49:56;;;;;;;2.70;1.70;;;8.00;99.90;;;;;;5074708;28;20623;-59
2022/11/18 02:52:24;;;;;;;6.33;2.13;;;8.00;99.90;;;;;;5075066;28;20300;-59
2022/11/18 02:54:52;;;;;;;5.97;2.23;;;7.90;99.90;;;;;;5075038;28;20257;-59
2022/11/18 02:57:20;;;;;;;5.47;2.10;;;7.90;99.90;;;;;;5074758;28;20206;-59
2022/11/18 02:59:47;;;;;;;3.10;1.97;;;7.90;99.90;;;;;;5074917;28;20217;-59
2022/11/18 03:02:18;;;;;;;4.27;2.17;;;7.90;99.90;;;;;;5074988;28;20252;-58
2022/11/18 03:04:47;;;;;;;3.00;1.67;;;7.90;99.90;;;;;;5074726;28;20238;-58
2022/11/18 03:07:18;;;;;;;4.50;2.40;;;7.90;99.90;;;;;;5074641;28;20242;-55
2022/11/18 03:09:48;;;;;;;6.83;2.10;;;7.90;99.90;;;;;;5074597;28;20556;-58
2022/11/18 03:12:23;;;;;;;4.87;2.00;;;7.90;99.90;;;;;;5074764;28;20274;-58
2022/11/18 03:15:00;;;;;;;7.17;2.40;;;7.90;99.90;;;;;;5074632;28;20210;-59
2022/11/18 03:17:40;;;;;;;5.80;2.20;;;7.90;99.90;;;;;;5074423;28;20257;-59
2022/11/18 03:20:15;;;;;;;4.63;2.30;;;7.90;99.90;;;;;;5074343;28;20210;-59
2022/11/18 03:22:45;;;;;;;6.33;2.17;;;8.00;99.90;;;;;;5074671;28;20242;-59
2022/11/18 03:25:18;;;;;;;7.93;2.20;;;8.00;99.90;;;;;;5074389;28;20292;-59
2022/11/18 03:27:53;;;;;;;6.47;2.23;;;8.00;99.90;;;;;;5074163;28;20678;-59
2022/11/18 03:30:23;;;;;;;4.10;2.40;;;8.00;99.90;;;;;;5074323;28;20284;-59
2022/11/18 03:32:56;;;;;;;6.87;2.67;;;8.10;99.90;;;;;;5074279;28;20233;-59
2022/11/18 03:35:26;;;;;;;5.50;2.70;;;8.10;99.90;;;;;;5074521;28;20637;-54
2022/11/18 03:37:59;;;;;;;10.17;3.57;;;8.10;99.90;;;;;;5074079;28;20568;-57
2022/11/18 03:40:29;;;;;;;6.00;2.80;;;8.10;99.90;;;;;;5074181;28;20210;-59
2022/11/18 03:43:00;;;;;;;5.30;2.67;;;8.10;99.90;;;;;;5073994;28;20709;-59
2022/11/18 03:45:32;;;;;;;8.90;2.90;;;8.10;99.90;;;;;;5074061;28;20218;-58
2022/11/18 03:48:07;;;;;;;6.47;2.67;;;8.10;99.90;;;;;;5073981;28;20268;-56
2022/11/18 03:50:39;;;;;;;8.47;2.60;;;8.10;99.90;;;;;;5074012;28;20207;-55
2022/11/18 03:53:07;;;;;;;8.90;2.50;;;8.20;99.90;;;;;;5073890;28;20239;-58
2022/11/18 03:55:37;;;;;;;8.20;2.57;;;8.20;99.90;;;;;;5073989;28;20264;-57
2022/11/18 03:58:10;;;;;;;6.13;2.57;;;8.20;99.90;;;;;;5074307;28;20203;-58
2022/11/18 04:00:41;;;;;;;6.90;2.40;;;8.20;99.90;;;;;;5073711;28;20209;-57
2022/11/18 04:03:11;;;;;;;7.60;3.00;;;8.10;99.90;;;;;;5073833;28;20315;-59
2022/11/18 04:05:40;;;;;;;8.77;2.90;;;8.20;99.90;;;;;;5073459;28;20212;-58
2022/11/18 04:08:11;;;;;;;7.20;2.83;;;8.20;99.90;;;;;;5073289;28;20721;-59
2022/11/18 04:10:41;;;;;;;7.40;2.77;;;8.20;99.90;;;;;;5074043;28;20238;-58
2022/11/18 04:13:15;;;;;;;9.00;3.43;;;8.20;99.90;;;;;;5073641;28;20228;-59
2022/11/18 04:15:42;;;;;;;7.80;3.10;;;8.20;99.90;;;;;;5073333;28;20212;-58
2022/11/18 04:18:11;;;;;;;10.27;2.63;;;8.20;99.90;;;;;;5073503;28;20759;-59
2022/11/18 04:20:38;;;;;;;9.80;2.67;;;8.10;99.90;;;;;;5073170;28;20266;-58
2022/11/18 04:23:05;;;;;;;7.87;2.53;;;8.20;99.90;;;;;;5073445;28;20223;-58
2022/11/18 04:25:32;;;;;;;9.73;2.70;;;8.10;99.90;;;;;;5073208;28;20215;-59
2022/11/18 04:27:59;;;;;;;6.13;2.90;;;8.10;99.90;;;;;;5073092;28;20210;-57
2022/11/18 04:30:25;;;;;;;7.47;2.83;;;8.10;99.90;;;;;;5073076;28;20211;-59
2022/11/18 04:32:52;;;;;;;4.77;2.80;;;8.10;99.90;;;;;;5072696;28;20293;-59
2022/11/18 04:35:20;;;;;;;5.83;3.07;;;8.10;99.90;;;;;;5072972;28;20263;-57
2022/11/18 04:37:47;;;;;;;6.23;2.60;;;8.10;99.90;;;;;;5072899;28;20212;-59
2022/11/18 04:40:13;;;;;;;8.00;2.87;;;8.10;99.90;;;;;;5072923;28;20266;-59
2022/11/18 04:42:40;;;;;;;4.83;2.50;;;8.10;99.90;;;;;;5072805;28;20201;-59
2022/11/18 04:45:08;;;;;;;5.97;2.70;;;8.10;99.90;;;;;;5072599;28;20216;-59
2022/11/18 04:47:35;;;;;;;8.80;3.13;;;8.10;99.90;;;;;;5072499;28;20584;-59
2022/11/18 04:50:02;;;;;;;7.17;2.93;;;8.10;99.90;;;;;;5072765;28;20210;-59
2022/11/18 04:52:30;;;;;;;8.10;3.27;;;8.10;99.90;;;;;;5072688;28;20223;-58
2022/11/18 04:54:56;;;;;;;5.87;2.43;;;8.10;99.90;;;;;;5072608;28;20290;-59
2022/11/18 04:57:23;;;;;;;4.70;2.63;;;8.10;99.90;;;;;;5072381;28;20211;-59
2022/11/18 04:59:50;;;;;;;9.67;3.63;;;8.10;99.90;;;;;;5072559;28;20204;-59
2022/11/18 05:02:16;;;;;;;6.57;3.77;;;8.10;99.90;;;;;;5072568;28;20211;-57
2022/11/18 05:04:43;;;;;;;6.90;3.10;;;8.10;99.90;;;;;;5072656;28;20224;-59
2022/11/18 05:07:14;;;;;;;4.97;2.30;;;8.00;99.90;;;;;;5072421;28;20207;-59
2022/11/18 05:09:42;;;;;;;5.90;3.40;;;8.00;99.90;;;;;;5072300;28;20237;-59
2022/11/18 05:14:56;;;;;;;9.43;2.80;;;7.90;99.90;;;;;;5072619;28;20740;-57
2022/11/18 05:17:22;;;;;;;6.83;2.53;;;7.90;99.90;;;;;;5072294;28;20357;-59
2022/11/18 05:19:49;;;;;;;6.03;2.90;;;7.90;99.90;;;;;;5072241;28;20214;-59
2022/11/18 05:22:16;;;;;;;6.57;3.10;;;8.00;99.90;;;;;;5072267;28;20202;-59
2022/11/18 05:24:44;;;;;;;4.27;2.47;;;8.00;99.90;;;;;;5071980;28;20318;-59
2022/11/18 05:27:11;;;;;;;4.87;3.23;;;8.00;99.90;;;;;;5071903;28;20208;-59
2022/11/18 05:29:38;;;;;;;5.13;2.70;;;8.00;99.90;;;;;;5072154;28;20215;-59
2022/11/18 05:32:05;;;;;;;5.70;3.30;;;8.10;99.90;;;;;;5072226;28;20289;-59
2022/11/18 05:34:32;;;;;;;7.17;3.10;;;8.10;99.90;;;;;;5071876;28;20239;-59
2022/11/18 05:36:59;;;;;;;6.90;2.70;;;8.10;99.90;;;;;;5071867;28;20212;-59
2022/11/18 05:39:26;;;;;;;6.10;3.63;;;8.20;99.90;;;;;;5071842;28;20204;-59
2022/11/18 05:44:38;;;;;;;9.23;3.40;;;8.20;99.90;;;;;;5071629;28;20240;-59
2022/11/18 05:47:05;;;;;;;6.53;3.23;;;8.20;99.90;;;;;;5071860;28;20257;-59
2022/11/18 05:49:31;;;;;;;7.47;2.90;;;8.20;99.90;;;;;;5071930;28;20242;-59
2022/11/18 05:51:58;;;;;;;7.07;3.33;;;8.30;99.90;;;;;;5071811;28;20270;-62
2022/11/18 05:54:26;;;;;;;6.73;2.97;;;8.30;99.90;;;;;;5069968;28;20236;-59
2022/11/18 05:56:54;;;;;;;7.20;2.83;;;8.40;99.90;;;;;;5070873;28;20203;-59
2022/11/18 05:59:21;;;;;;;8.87;3.53;;;8.40;99.90;;;;;;5071672;28;20230;-59
2022/11/18 06:01:52;;;;;;;6.73;3.30;;;8.40;99.90;;;;;;5071385;28;20256;-59
2022/11/18 06:04:23;;;;;;;6.97;3.10;;;8.40;99.90;;;;;;5071546;28;20235;-59
2022/11/18 06:06:54;;;;;;;11.63;3.33;;;8.40;99.90;;;;;;5070900;28;20214;-57
2022/11/18 06:09:25;;;;;;;9.23;3.37;;;8.40;99.90;;;;;;5071699;28;20215;-58
2022/11/18 06:11:56;;;;;;;7.90;2.80;;;8.40;99.90;;;;;;5071163;28;20207;-58
2022/11/18 06:14:27;;;;;;;8.33;3.30;;;8.40;99.90;;;;;;5071498;28;20231;-58
2022/11/18 06:16:58;;;;;;;11.43;3.07;;;8.50;99.90;;;;;;5070860;28;20212;-58
2022/11/18 06:19:25;;;;;;;7.17;3.30;;;8.50;99.90;;;;;;5071184;28;20208;-58
2022/11/18 06:21:52;;;;;;;6.07;3.27;;;8.50;99.90;;;;;;5071479;28;20207;-59
2022/11/18 06:24:19;;;;;;;7.53;2.60;;;8.50;99.90;;;;;;5075786;28;20228;-59
2022/11/18 06:26:47;;;;;;;5.97;2.83;;;8.50;99.90;;;;;;5075342;28;20238;-58
2022/11/18 06:29:18;;;;;;;5.47;2.97;;;8.40;99.90;;;;;;5074994;28;20220;-59
2022/11/18 06:31:44;;;;;;;8.83;3.53;;;8.50;99.90;;;;;;5075336;28;20208;-59
2022/11/18 06:34:11;;;;;;;8.33;3.30;;;8.50;99.90;;;;;;5074678;28;20285;-59
2022/11/18 06:36:38;;;;;;;8.40;3.33;;;8.40;99.90;;;;;;5075218;28;20670;-60
2022/11/18 06:39:05;;;;;;;6.47;3.40;;;8.40;99.90;;;;;;5074668;28;20609;-61
2022/11/18 06:41:32;;;;;;;8.70;3.40;;;8.40;99.90;;;;;;5075203;28;20212;-61
2022/11/18 06:43:59;;;;;;;6.60;3.00;;;8.40;99.90;;;;;;5074274;28;20236;-60
2022/11/18 06:49:11;;;;;;;7.40;3.33;;;8.30;99.90;;;;;;5074244;28;20211;-60
2022/11/18 06:51:39;;;;;;;9.17;4.30;;;8.30;99.90;;;;;;5074833;28;20219;-61
2022/11/18 06:54:05;;;;;;;8.20;4.17;;;8.30;99.90;;;;;;5074216;28;20239;-61
2022/11/18 06:56:32;;;;;;;8.90;4.30;;;8.30;99.90;;;;;;5074706;28;20666;-61
2022/11/18 06:58:59;;;;;;;10.10;3.93;;;8.30;99.90;;;;;;5074704;28;20222;-60
2022/11/18 07:01:29;;;;;;;8.97;4.27;;;8.30;99.90;;;;;;5074154;28;20311;-60
2022/11/18 07:03:57;;;;;;;12.93;4.07;;;8.30;99.90;;;;;;5074448;28;20730;-60
2022/11/18 07:06:26;;;;;;;9.67;4.83;;;8.30;99.90;;;;;;5073757;28;20212;-60
2022/11/18 07:08:53;;;;;;;7.97;4.20;;;8.30;99.90;;;;;;5074436;28;20211;-61
2022/11/18 07:11:21;;;;;;;9.63;3.90;;;8.30;99.90;;;;;;5072477;28;20203;-60
2022/11/18 07:13:49;;;;;;;10.60;4.27;;;8.30;99.90;;;;;;5061419;28;20234;-63
2022/11/18 07:16:17;;;;;;;9.77;4.20;;;8.40;99.90;;;;;;5073581;28;20281;-59
2022/11/18 07:18:47;;;;;;;11.27;4.17;;;8.40;99.90;;;;;;5073674;28;20740;-61
2022/11/18 07:21:15;;;;;;;13.20;5.47;;;8.40;99.90;;;;;;5073586;28;20265;-62
2022/11/18 07:23:42;;;;;;;10.80;4.57;;;8.40;99.90;;;;;;5073116;28;20223;-60
2022/11/18 07:26:10;;;;;;;6.90;3.93;;;8.40;99.90;;;;;;5073820;28;20266;-60
2022/11/18 07:28:36;;;;;;;9.47;4.70;;;8.40;99.90;;;;;;5073488;28;20212;-60
2022/11/18 07:31:04;;;;;;;11.63;4.53;;;8.40;99.90;;;;;;5073680;28;20212;-61
2022/11/18 07:33:32;;;;;;;9.20;4.20;;;8.40;99.90;;;;;;5072390;28;20228;-61
2022/11/18 07:36:03;;;;;;;10.13;4.37;;;8.40;99.90;;;;;;5073113;28;20288;-61
2022/11/18 07:38:29;;;;;;;6.73;4.20;;;8.50;99.90;;;;;;5072980;28;20212;-60
2022/11/18 07:41:02;;;;;;;11.20;4.80;;;8.50;99.90;;;;;;5073771;28;20212;-61
2022/11/18 07:43:29;;;;;;;13.17;4.33;;;8.50;99.90;;;;;;5072748;28;20223;-61
2022/11/18 07:45:55;;;;;;;9.17;4.37;;;8.50;99.90;;;;;;5073239;28;20216;-60
2022/11/18 07:48:22;;;;;;;15.57;5.03;;;8.60;99.90;;;;;;5073374;28;20212;-61
2022/11/18 07:50:48;;;;;;;9.73;4.50;;;8.60;99.90;;;;;;5072679;28;20630;-61
2022/11/18 07:53:16;;;;;;;9.77;4.70;;;8.60;99.90;;;;;;5072790;28;20231;-61
2022/11/18 07:55:43;;;;;;;8.10;4.20;;;8.60;99.90;;;;;;5072865;28;20614;-61
2022/11/18 07:58:10;;;;;;;9.27;4.43;;;8.70;99.90;;;;;;5073056;28;20258;-62
2022/11/18 08:00:36;;;;;;;14.03;4.43;;;8.70;99.90;;;;;;5072848;28;20215;-58
2022/11/18 08:03:03;;;;;;;7.60;4.10;;;8.70;99.90;;;;;;5072681;28;20714;-60
2022/11/18 08:05:30;;;;;;;11.00;4.60;;;8.70;99.90;;;;;;5072693;28;20216;-59
2022/11/18 08:07:57;;;;;;;8.77;4.80;;;8.80;99.90;;;;;;5072994;28;20208;-63
2022/11/18 08:10:25;;;;;;;9.77;4.77;;;8.80;99.90;;;;;;5072991;28;20268;-60
2022/11/18 08:12:52;;;;;;;9.83;4.73;;;8.80;99.90;;;;;;5071991;28;20227;-59
2022/11/18 08:15:18;;;;;;;7.80;4.93;;;8.80;99.90;;;;;;5072444;28;20225;-61
2022/11/18 08:17:45;;;;;;;7.97;4.60;;;8.90;99.90;;;;;;5072277;28;20261;-63
2022/11/18 08:20:12;;;;;;;9.37;4.37;;;8.90;99.90;;;;;;5072444;28;20824;-61
2022/11/18 08:22:39;;;;;;;13.80;4.73;;;9.00;99.90;;;;;;5071973;28;20253;-61
2022/11/18 08:25:06;;;;;;;13.70;4.90;;;9.00;99.90;;;;;;5072736;28;20221;-62
2022/11/18 08:27:34;;;;;;;8.97;4.90;;;9.00;99.90;;;;;;5072198;28;20207;-60
2022/11/18 08:30:01;;;;;;;9.37;4.80;;;9.10;99.90;;;;;;5072195;28;20230;-60
2022/11/18 08:32:28;;;;;;;11.33;4.70;;;9.10;99.90;;;;;;5071960;28;20234;-60
2022/11/18 08:34:54;;;;;;;9.90;4.90;;;9.10;99.90;;;;;;5071842;28;20228;-64
2022/11/18 08:37:21;;;;;;;10.17;4.57;;;9.20;99.90;;;;;;5072167;28;20205;-65
2022/11/18 08:39:48;;;;;;;6.60;4.40;;;9.20;99.90;;;;;;5071609;28;20208;-62
2022/11/18 08:42:14;;;;;;;10.47;4.60;;;9.30;99.90;;;;;;5071703;28;20567;-56
2022/11/18 08:44:42;;;;;;;9.53;4.33;;;9.40;99.90;;;;;;5071690;28;20286;-54
2022/11/18 08:47:09;;;;;;;7.27;4.50;;;9.30;99.90;;;;;;5070743;28;20213;-60
2022/11/18 08:49:36;;;;;;;9.57;4.87;;;9.40;99.90;;;;;;5072207;28;20321;-58
2022/11/18 08:52:02;;;;;;;7.53;4.07;;;9.50;99.90;;;;;;5068489;28;20592;-59
2022/11/18 08:54:30;;;;;;;8.90;3.93;;;9.50;99.90;;;;;;5072024;28;20232;-59
2022/11/18 08:56:57;;;;;;;7.07;4.10;;;9.50;99.90;;;;;;5071216;28;20209;-60
2022/11/18 08:59:23;;;;;;;6.30;4.17;;;9.50;99.90;;;;;;5071087;28;20204;-60
2022/11/18 09:01:51;;;;;;;7.53;4.50;;;9.50;99.90;;;;;;5070920;28;20223;-63
2022/11/18 09:04:19;;;;;;;6.83;4.23;;;9.50;99.90;;;;;;5072044;28;20217;-62
2022/11/18 09:06:45;;;;;;;9.90;4.70;;;9.60;99.90;;;;;;5072277;28;20220;-62
2022/11/18 09:09:12;;;;;;;9.20;4.70;;;9.60;99.90;;;;;;5070750;28;20208;-62
2022/11/18 09:11:39;;;;;;;8.23;4.70;;;9.70;99.90;;;;;;5071004;28;20197;-64
2022/11/18 09:14:06;;;;;;;9.77;4.20;;;9.80;99.90;;;;;;5070754;28;20240;-63
2022/11/18 09:16:35;;;;;;;11.00;4.30;;;9.60;99.90;;;;;;5071661;28;20266;-65
2022/11/18 09:19:03;;;;;;;9.17;4.70;;;9.80;99.90;;;;;;5071161;28;20607;-65
2022/11/18 09:21:30;;;;;;;8.00;4.00;;;10.00;99.90;;;;;;5071302;28;20209;-71
2022/11/18 09:23:57;;;;;;;7.37;4.07;;;10.10;99.90;;;;;;5071457;28;20221;-61
2022/11/18 09:26:24;;;;;;;8.83;4.03;;;10.20;99.90;;;;;;5071158;28;20204;-63
2022/11/18 09:28:53;;;;;;;7.30;4.90;;;10.10;99.90;;;;;;5071570;28;20216;-64
2022/11/18 09:31:20;;;;;;;9.63;4.17;;;10.10;99.90;;;;;;5070872;28;20205;-64
2022/11/18 09:33:46;;;;;;;10.70;4.50;;;10.00;99.90;;;;;;5071333;28;20240;-60
2022/11/18 09:36:17;;;;;;;12.17;4.37;;;10.00;99.90;;;;;;5071258;28;20213;-61
2022/11/18 09:38:44;;;;;;;8.73;4.30;;;10.00;99.90;;;;;;5071482;28;20205;-60
2022/11/18 09:41:39;;;;;;;9.57;4.00;;;10.00;99.90;;;;;;5071188;28;20227;-60
2022/11/18 09:44:16;;;;;;;8.07;4.50;;;10.00;99.90;;;;;;5071022;28;20286;-60
2022/11/18 09:46:54;;;;;;;7.03;4.97;;;9.90;99.90;;;;;;5070874;28;20208;-58
2022/11/18 09:49:27;;;;;;;8.40;4.30;;;9.90;99.90;;;;;;5071210;28;20647;-59
2022/11/18 09:51:55;;;;;;;5.73;4.43;;;9.90;99.90;;;;;;5071428;28;20209;-60
2022/11/18 09:54:24;;;;;;;10.40;4.30;;;9.90;99.90;;;;;;5070691;28;20305;-59
2022/11/18 09:56:53;;;;;;;7.10;4.20;;;9.90;99.90;;;;;;5071053;28;20586;-63
2022/11/18 09:59:23;;;;;;;8.53;4.17;;;10.00;99.90;;;;;;5070761;28;20216;-62
2022/11/18 10:01:52;;;;;;;6.97;3.67;;;10.10;99.90;;;;;;5071047;28;20211;-62
2022/11/18 10:04:20;;;;;;;10.23;4.20;;;10.30;99.90;;;;;;5070612;28;20228;-63
2022/11/18 10:06:49;;;;;;;8.73;3.40;;;10.50;99.90;;;;;;5071316;28;20213;-63
2022/11/18 10:09:34;;;;;;;6.70;3.63;;;10.60;99.90;;;;;;5070919;28;20233;-63
2022/11/18 10:12:12;;;;;;;5.67;3.40;;;10.80;99.90;;;;;;5070006;28;20236;-62
2022/11/18 10:14:57;;;;;;;8.87;3.57;;;11.00;99.90;;;;;;5056123;28;20219;-62
2022/11/18 10:17:39;;;;;;;10.50;3.63;;;11.20;99.90;;;;;;5069984;28;20625;-61
2022/11/18 10:20:22;;;;;;;7.27;3.30;;;11.00;99.90;;;;;;5070948;28;20617;-62
2022/11/18 10:22:54;;;;;;;5.50;3.10;;;11.00;99.90;;;;;;5070476;28;20224;-61
2022/11/18 10:25:23;;;;;;;5.33;3.40;;;11.00;99.90;;;;;;5070432;28;20664;-61
2022/11/18 10:27:51;;;;;;;6.30;3.40;;;10.90;99.90;;;;;;5070522;28;20252;-61
2022/11/18 10:30:19;;;;;;;5.33;3.13;;;10.90;99.90;;;;;;5070959;28;20205;-61
2022/11/18 10:32:58;;;;;;;6.13;3.00;;;11.00;99.90;;;;;;5070204;28;20254;-60
2022/11/18 10:35:28;;;;;;;5.57;3.13;;;11.10;99.90;;;;;;5070669;28;20696;-63
2022/11/18 10:38:04;;;;;;;6.73;3.47;;;11.10;99.90;;;;;;5070361;28;20645;-62
2022/11/18 10:40:34;;;;;;;12.40;3.23;;;11.20;99.90;;;;;;5070674;28;20209;-63
2022/11/18 10:43:01;;;;;;;8.80;2.90;;;11.10;99.90;;;;;;5069153;28;20603;-60
2022/11/18 10:45:29;;;;;;;5.80;3.07;;;11.10;99.90;;;;;;5070698;28;20216;-57
2022/11/18 10:47:59;;;;;;;8.57;3.43;;;11.00;99.90;;;;;;5070649;28;20270;-57
2022/11/18 10:50:32;;;;;;;6.13;2.80;;;10.90;99.90;;;;;;5071035;28;20258;-61
2022/11/18 10:52:59;;;;;;;6.73;2.83;;;10.90;99.90;;;;;;5071313;28;20232;-55
2022/11/18 10:55:26;;;;;;;8.67;3.00;;;10.90;99.90;;;;;;5070532;28;20227;-60
2022/11/18 10:58:02;;;;;;;5.07;2.67;;;10.80;99.90;;;;;;5070887;28;20216;-58
2022/11/18 11:00:43;;;;;;;6.50;3.00;;;10.80;99.90;;;;;;5069982;28;20315;-61
2022/11/18 11:03:25;;;;;;;5.47;2.43;;;10.90;99.90;;;;;;5070245;28;20229;-58
2022/11/18 11:06:29;;;;;;;7.20;3.10;;;11.00;99.90;;;;;;5070592;28;20208;-62
2022/11/18 11:08:58;;;;;;;9.07;3.03;;;11.10;99.90;;;;;;5071082;28;20644;-64
2022/11/18 11:11:27;;;;;;;7.37;2.80;;;11.10;99.90;;;;;;5074109;28;20230;-61
2022/11/18 11:14:25;;;;;;;11.47;3.27;;;10.90;99.90;;;;;;5074103;28;20243;-61
2022/11/18 11:16:59;;;;;;;9.53;3.10;;;10.90;99.90;;;;;;5038581;28;20212;-62
2022/11/18 11:19:37;;;;;;;7.90;3.40;;;10.90;99.90;;;;;;5074075;28;20204;-62
2022/11/18 11:22:08;;;;;;;6.43;2.63;;;10.80;99.90;;;;;;5073495;28;20228;-60
2022/11/18 11:24:35;;;;;;;8.47;3.00;;;10.80;99.90;;;;;;5073888;28;20322;-61
2022/11/18 11:27:14;;;;;;;11.70;3.07;;;10.80;99.90;;;;;;5073358;28;20212;-61
2022/11/18 11:30:05;;;;;;;5.50;2.80;;;10.80;99.90;;;;;;5073441;28;20225;-61
2022/11/18 11:32:43;;;;;;;10.50;3.20;;;10.80;99.90;;;;;;5073277;28;20667;-63
2022/11/18 11:35:17;;;;;;;5.97;2.60;;;10.70;99.90;;;;;;5073154;28;20679;-62
2022/11/18 11:37:52;;;;;;;7.33;2.83;;;10.80;99.90;;;;;;5073467;28;20216;-63
2022/11/18 11:40:39;;;;;;;7.77;2.77;;;10.80;99.90;;;;;;5073234;28;20681;-63
2022/11/18 11:43:22;;;;;;;5.83;3.07;;;10.80;99.90;;;;;;5073288;28;20225;-61
2022/11/18 11:46:05;;;;;;;8.40;3.03;;;10.70;99.90;;;;;;5072547;28;20232;-61
2022/11/18 11:48:41;;;;;;;5.83;3.00;;;10.70;99.90;;;;;;5073731;28;20260;-61
2022/11/18 11:51:15;;;;;;;8.80;2.67;;;10.80;99.90;;;;;;5072970;28;20761;-57
2022/11/18 11:53:55;;;;;;;7.50;3.17;;;10.90;99.90;;;;;;5073344;28;20252;-58
2022/11/18 11:56:31;;;;;;;6.23;3.37;;;10.90;99.90;;;;;;5072685;28;20751;-58
2022/11/18 11:59:08;;;;;;;6.23;2.80;;;10.90;99.90;;;;;;5073128;28;20218;-60
2022/11/18 12:01:52;;;;;;;8.93;3.17;;;11.00;99.80;;;;;;5064870;28;20254;-60
2022/11/18 12:04:32;;;;;;;7.70;3.30;;;10.90;91.60;;;;;;5072634;28;20227;-63
2022/11/18 12:06:59;;;;;;;7.80;2.90;;;10.90;99.90;;;;;;5072091;28;20690;-63
2022/11/18 12:09:42;;;;;;;14.80;3.40;;;10.90;99.90;;;;;;5073113;28;20216;-62
2022/11/18 12:12:37;;;;;;;7.83;2.97;;;11.00;99.90;;;;;;5072396;28;20265;-62
2022/11/18 12:15:18;;;;;;;7.53;2.77;;;11.10;99.90;;;;;;5073002;28;20271;-62
2022/11/18 12:17:55;;;;;;;10.70;2.80;;;11.20;99.90;;;;;;5072321;28;22337;-62
2022/11/18 12:20:53;;;;;;;7.00;2.50;;;11.20;99.90;;;;;;5072886;28;20214;-62
2022/11/18 12:23:21;;;;;;;6.67;2.60;;;11.20;99.90;;;;;;5010517;28;20235;-61
2022/11/18 12:25:53;;;;;;;6.47;2.10;;;11.30;99.90;;;;;;5042634;28;20607;-61
2022/11/18 12:28:26;;;;;;;5.83;2.07;;;11.40;52.00;;;;;;5065824;28;20211;-63
2022/11/18 12:31:41;;;;;;;10.90;2.17;;;11.50;53.50;;;;;;5071945;28;20275;-63
2022/11/18 12:34:35;;;;;;;6.73;2.03;;;11.60;39.40;;;;;;5071788;28;20236;-59
2022/11/18 12:37:39;;;;;;;9.97;1.93;;;11.70;13.80;;;;;;5071527;28;20208;-58
2022/11/18 12:40:08;;;;;;;6.40;2.10;;;11.80;23.80;;;;;;5071245;28;20262;-57
2022/11/18 12:45:54;;;;;;;3.50;1.83;;;11.60;11.00;;;;;;5072105;28;20694;-59
2022/11/18 12:48:41;;;;;;;9.03;2.50;;;11.60;13.30;;;;;;5071712;28;20212;-57
2022/11/18 12:51:43;;;;;;;6.47;2.30;;;11.50;1.00;;;;;;5072288;28;20204;-53
2022/11/18 12:54:33;;;;;;;4.30;2.20;;;11.60;42.30;;;;;;5071331;28;20229;-57
2022/11/18 12:57:03;;;;;;;9.30;3.20;;;11.60;42.60;;;;;;5059623;28;20208;-58
2022/11/18 12:59:33;;;;;;;17.93;3.23;;;11.70;34.10;;;;;;5071814;28;20219;-58
2022/11/18 13:02:06;;;;;;;6.53;2.93;;;11.70;13.50;;;;;;5071857;28;20209;-58
2022/11/18 13:04:33;;;;;;;11.93;3.07;;;11.70;29.60;;;;;;5060877;28;20237;-56
2022/11/18 13:07:01;;;;;;;6.77;2.23;;;11.60;37.50;;;;;;5071241;28;20209;-56
2022/11/18 13:09:30;;;;;;;8.37;2.47;;;11.60;24.10;;;;;;5071443;28;20235;-55
2022/11/18 13:12:01;;;;;;;7.43;2.33;;;11.50;1.00;;;;;;5071941;28;20234;-55
2022/11/18 13:20:26;;;;;;;8.97;2.10;;;11.30;32.40;;;;;;5071255;28;20214;-57
2022/11/18 13:25:38;;;;;;;7.37;2.33;;;11.30;22.20;;;;;;5071417;28;20203;-58
2022/11/18 13:28:18;;;;;;;5.57;1.93;;;11.30;25.80;;;;;;5071118;28;20224;-58
2022/11/18 13:30:51;;;;;;;4.73;1.93;;;11.30;35.40;;;;;;5071855;28;20298;-60
2022/11/18 13:33:17;;;;;;;11.43;2.10;;;11.40;13.30;;;;;;5070577;28;20227;-61
2022/11/18 13:35:44;;;;;;;7.80;2.50;;;11.30;1.00;;;;;;5071885;28;20232;-61